Time;durP1;ratioP1;P1;durP2;ratioP2;P2;SDS_P1;SDS_P2;PMS_P1;PMS_P2;Temp;Humidity;BMP_temperature;BMP_pressure;BME280_temperature;BME280_humidity;BME280_pressure;Samples;Min_cycle;Max_cycle;Signal;HPM_P1;HPM_P2
2023/11/11 00:01:10;;;;;;;5.30;2.90;;;;;;;6.68;100.00;98172.39;109636;1250;72709;-70
2023/11/11 00:03:36;;;;;;;3.60;3.00;;;;;;;6.70;100.00;98168.92;109624;1251;60512;-72
2023/11/11 00:06:03;;;;;;;3.30;3.00;;;;;;;6.70;100.00;98164.13;109648;1251;60180;-71
2023/11/11 00:08:34;;;;;;;11.50;4.00;;;;;;;6.71;100.00;98162.51;109693;1250;74659;-69
2023/11/11 00:11:01;;;;;;;3.50;3.10;;;;;;;6.68;100.00;98160.52;109712;1251;67869;-70
2023/11/11 00:13:27;;;;;;;4.20;2.80;;;;;;;6.63;100.00;98160.30;109667;1251;72491;-71
2023/11/11 00:15:54;;;;;;;6.70;3.80;;;;;;;6.58;100.00;98160.67;109605;1251;59060;-71
2023/11/11 00:18:21;;;;;;;4.70;3.60;;;;;;;6.53;100.00;98158.38;109657;1251;60408;-69
2023/11/11 00:20:48;;;;;;;3.70;3.10;;;;;;;6.49;100.00;98151.84;109717;1251;74446;-69
2023/11/11 00:23:15;;;;;;;4.30;3.00;;;;;;;6.47;100.00;98153.34;109638;1251;67775;-72
2023/11/11 00:25:43;;;;;;;3.90;3.30;;;;;;;6.47;100.00;98153.50;109646;1250;71992;-69
2023/11/11 00:28:10;;;;;;;6.20;3.20;;;;;;;6.50;100.00;98149.95;109565;1251;60690;-71
2023/11/11 00:30:36;;;;;;;4.70;3.20;;;;;;;6.53;100.00;98146.10;109646;1251;59031;-71
2023/11/11 00:33:03;;;;;;;10.60;3.50;;;;;;;6.56;100.00;98143.84;109644;1251;74430;-70
2023/11/11 00:35:29;;;;;;;3.60;3.20;;;;;;;6.60;100.00;98139.84;109634;1250;67808;-72
2023/11/11 00:37:56;;;;;;;4.60;3.50;;;;;;;6.63;100.00;98135.83;109509;1251;59113;-70
2023/11/11 00:40:23;;;;;;;4.30;3.10;;;;;;;6.63;100.00;98130.99;109622;1250;58875;-68
2023/11/11 00:42:51;;;;;;;3.60;3.10;;;;;;;6.62;100.00;98131.09;109607;1251;59090;-71
2023/11/11 00:45:19;;;;;;;3.40;2.90;;;;;;;6.60;100.00;98127.82;109654;1251;74982;-70
2023/11/11 00:47:45;;;;;;;3.80;3.50;;;;;;;6.57;100.00;98121.45;109655;1250;67913;-69
2023/11/11 00:50:12;;;;;;;3.50;3.20;;;;;;;6.54;100.00;98125.35;109553;1250;71254;-72
2023/11/11 00:52:38;;;;;;;3.90;3.30;;;;;;;6.48;100.00;98122.02;109670;1251;62037;-70
2023/11/11 00:55:07;;;;;;;3.90;2.70;;;;;;;6.41;100.00;98122.28;109690;1251;58836;-71
2023/11/11 00:57:35;;;;;;;5.10;3.80;;;;;;;6.33;100.00;98121.34;109627;1251;74818;-69
2023/11/11 01:00:03;;;;;;;3.50;3.20;;;;;;;6.24;100.00;98119.73;109554;1251;67925;-71
2023/11/11 01:02:29;;;;;;;3.50;3.10;;;;;;;6.15;100.00;98117.21;109625;1251;72510;-72
2023/11/11 01:04:56;;;;;;;2.90;2.70;;;;;;;6.06;100.00;98110.84;109627;1251;60033;-71
2023/11/11 01:07:25;;;;;;;4.70;2.70;;;;;;;6.00;100.00;98103.61;109610;1251;60239;-69
2023/11/11 01:09:52;;;;;;;3.20;2.90;;;;;;;5.96;100.00;98100.77;109651;1252;58992;-70
2023/11/11 01:12:20;;;;;;;6.30;3.50;;;;;;;5.95;100.00;98097.16;109627;1251;68003;-71
2023/11/11 01:14:47;;;;;;;3.40;3.10;;;;;;;5.95;100.00;98096.89;109674;1251;72637;-70
2023/11/11 01:17:13;;;;;;;5.80;3.10;;;;;;;5.94;100.00;98094.35;109691;1251;58980;-69
2023/11/11 01:19:40;;;;;;;4.00;3.20;;;;;;;5.92;100.00;98093.98;109630;1250;60107;-70
2023/11/11 01:22:09;;;;;;;3.50;3.20;;;;;;;5.89;100.00;98091.14;109657;1251;74578;-69
2023/11/11 01:24:36;;;;;;;4.00;3.60;;;;;;;5.86;100.00;98083.41;109618;1251;67616;-68
2023/11/11 01:27:03;;;;;;;3.30;3.00;;;;;;;5.84;100.00;98079.93;109525;1251;71251;-71
2023/11/11 01:29:30;;;;;;;4.20;3.10;;;;;;;5.83;100.00;98079.02;109526;1251;61671;-68
2023/11/11 01:31:56;;;;;;;4.80;3.50;;;;;;;5.82;100.00;98071.27;109660;1251;58946;-70
2023/11/11 01:34:23;;;;;;;7.40;3.70;;;;;;;5.80;100.00;98069.36;109632;1251;73241;-69
2023/11/11 01:36:49;;;;;;;4.00;3.50;;;;;;;5.77;100.00;98068.61;109625;1251;67713;-71
2023/11/11 01:39:16;;;;;;;3.80;3.10;;;;;;;5.75;100.00;98068.37;109605;1251;71813;-69
2023/11/11 01:41:42;;;;;;;7.00;3.80;;;;;;;5.73;100.00;98062.37;109579;1256;60605;-69
2023/11/11 01:44:09;;;;;;;3.80;3.10;;;;;;;5.72;100.00;98058.63;109617;1251;58887;-69
2023/11/11 01:46:37;;;;;;;5.60;3.70;;;;;;;5.71;100.00;98057.30;109649;1251;73250;-71
2023/11/11 01:49:04;;;;;;;4.00;3.60;;;;;;;5.70;100.00;98054.71;109553;1251;66043;-70
2023/11/11 01:51:31;;;;;;;4.00;3.10;;;;;;;5.68;100.00;98055.49;109627;1251;72574;-71
2023/11/11 01:53:58;;;;;;;3.40;3.10;;;;;;;5.66;100.00;98052.12;109633;1251;62000;-70
2023/11/11 01:56:24;;;;;;;4.80;3.50;;;;;;;5.65;100.00;98051.94;109658;1250;60265;-68
2023/11/11 01:58:51;;;;;;;3.90;2.90;;;;;;;5.64;100.00;98047.92;109641;1251;74585;-68
2023/11/11 02:01:17;;;;;;;7.20;4.00;;;;;;;5.64;100.00;98048.64;109532;1256;68142;-67
2023/11/11 02:03:44;;;;;;;8.30;3.50;;;;;;;5.62;100.00;98045.36;109592;1251;71726;-69
2023/11/11 02:06:11;;;;;;;4.10;3.70;;;;;;;5.61;100.00;98046.35;109604;1251;62371;-70
2023/11/11 02:08:37;;;;;;;3.40;3.10;;;;;;;5.61;100.00;98044.23;109680;1251;60633;-67
2023/11/11 02:11:08;;;;;;;3.40;3.00;;;;;;;5.60;100.00;98041.67;109511;1251;73336;-69
2023/11/11 02:13:35;;;;;;;6.30;3.10;;;;;;;5.60;100.00;98036.76;109606;1251;67040;-69
2023/11/11 02:16:03;;;;;;;4.00;3.20;;;;;;;5.59;100.00;98036.59;109509;1250;71830;-69
2023/11/11 02:18:30;;;;;;;5.80;3.50;;;;;;;5.55;100.00;98032.40;109608;1251;61773;-70
2023/11/11 02:20:57;;;;;;;4.20;3.70;;;;;;;5.55;100.00;98027.73;109631;1256;59046;-70
2023/11/11 02:23:36;;;;;;;5.60;3.20;;;;;;;5.57;100.00;98024.96;109612;1252;74640;-70
2023/11/11 02:26:03;;;;;;;7.60;3.30;;;;;;;5.62;100.00;98026.40;109655;1251;67910;-68
2023/11/11 02:28:30;;;;;;;3.80;3.50;;;;;;;5.67;100.00;98021.81;109502;1251;76033;-70
2023/11/11 02:30:57;;;;;;;4.60;3.50;;;;;;;5.71;100.00;98019.41;109519;1251;61276;-68
2023/11/11 02:33:27;;;;;;;5.70;3.60;;;;;;;5.73;100.00;98017.06;109649;1251;59012;-70
2023/11/11 02:35:53;;;;;;;4.40;4.00;;;;;;;5.74;100.00;98011.15;109654;1251;73379;-71
2023/11/11 02:38:20;;;;;;;3.60;3.20;;;;;;;5.73;100.00;98005.98;109660;1251;59747;-69
2023/11/11 02:40:47;;;;;;;3.50;3.20;;;;;;;5.70;100.00;97999.19;109569;1252;71333;-69
2023/11/11 02:43:14;;;;;;;3.80;3.50;;;;;;;5.67;100.00;97993.80;109630;1251;59086;-68
2023/11/11 02:45:40;;;;;;;8.70;4.00;;;;;;;5.64;100.00;97995.59;109623;1251;60077;-71
2023/11/11 02:48:07;;;;;;;6.60;3.20;;;;;;;5.63;100.00;97986.56;109656;1251;74505;-70
2023/11/11 02:50:33;;;;;;;3.70;3.30;;;;;;;5.63;100.00;97982.30;109600;1251;67713;-70
2023/11/11 02:53:00;;;;;;;4.60;3.60;;;;;;;5.65;100.00;97981.35;109470;1251;72780;-68
2023/11/11 02:55:27;;;;;;;3.80;2.90;;;;;;;5.68;100.00;97978.70;109576;1251;60580;-71
2023/11/11 02:57:53;;;;;;;4.00;3.10;;;;;;;5.71;100.00;97972.70;109655;1251;60060;-71
2023/11/11 03:00:21;;;;;;;3.20;2.90;;;;;;;5.73;100.00;97965.61;109573;1251;59336;-70
2023/11/11 03:02:47;;;;;;;3.80;3.00;;;;;;;5.76;100.00;97965.24;109627;1255;67741;-69
2023/11/11 03:05:14;;;;;;;5.20;3.20;;;;;;;5.78;100.00;97965.30;109581;1251;72438;-70
2023/11/11 03:07:40;;;;;;;4.50;3.20;;;;;;;5.77;100.00;97958.55;109631;1252;59250;-70
2023/11/11 03:10:09;;;;;;;4.90;3.10;;;;;;;5.75;100.00;97961.89;109622;1251;58942;-68
2023/11/11 03:12:36;;;;;;;4.90;3.90;;;;;;;5.75;100.00;97967.16;109699;1251;73433;-68
2023/11/11 03:15:04;;;;;;;3.80;3.20;;;;;;;5.76;100.00;97969.66;109643;1253;66663;-70
2023/11/11 03:17:31;;;;;;;3.70;2.70;;;;;;;5.82;100.00;97973.36;109557;1251;72269;-71
2023/11/11 03:19:57;;;;;;;3.70;3.20;;;;;;;5.91;100.00;97972.42;109646;1251;61876;-70
2023/11/11 03:22:24;;;;;;;5.90;3.00;;;;;;;6.00;100.00;97970.40;109614;1251;60355;-68
2023/11/11 03:24:50;;;;;;;4.30;3.10;;;;;;;6.09;100.00;97971.67;109627;1255;73246;-72
2023/11/11 03:27:17;;;;;;;5.30;3.70;;;;;;;6.15;100.00;97971.42;109693;1250;68838;-72
2023/11/11 03:29:43;;;;;;;3.20;2.90;;;;;;;6.20;100.00;97966.66;109647;1251;58947;-71
2023/11/11 03:32:10;;;;;;;4.70;2.80;;;;;;;6.24;100.00;97963.76;109518;1251;60787;-71
2023/11/11 03:34:37;;;;;;;3.10;2.40;;;;;;;6.28;100.00;97959.88;109563;1251;58974;-70
2023/11/11 03:37:03;;;;;;;5.00;2.60;;;;;;;6.33;100.00;97958.85;109642;1251;58954;-69
2023/11/11 03:39:31;;;;;;;3.20;2.50;;;;;;;6.36;100.00;97955.29;109588;1251;67916;-69
2023/11/11 03:41:58;;;;;;;2.80;2.60;;;;;;;6.38;100.00;97954.52;109634;1251;70333;-70
2023/11/11 03:44:24;;;;;;;2.70;2.50;;;;;;;6.38;100.00;97947.98;109593;1250;60565;-70
2023/11/11 03:46:51;;;;;;;5.90;2.80;;;;;;;6.38;100.00;97947.65;109641;1251;60164;-71
2023/11/11 03:49:17;;;;;;;3.00;2.40;;;;;;;6.38;100.00;97951.34;109691;1251;59003;-71
2023/11/11 03:51:44;;;;;;;3.10;2.80;;;;;;;6.37;100.00;97950.22;109663;1252;66605;-71
2023/11/11 03:54:11;;;;;;;2.80;2.60;;;;;;;6.37;100.00;97945.54;109597;1251;59000;-69
2023/11/11 03:56:38;;;;;;;3.60;2.90;;;;;;;6.36;100.00;97939.69;109582;1251;61939;-70
2023/11/11 03:59:05;;;;;;;4.00;2.70;;;;;;;6.34;100.00;97934.00;109631;1251;58916;-70
2023/11/11 04:01:35;;;;;;;3.80;3.00;;;;;;;6.32;100.00;97930.20;109674;1250;74646;-70
2023/11/11 04:04:02;;;;;;;3.70;2.70;;;;;;;6.29;100.00;97929.83;109571;1251;67928;-70
2023/11/11 04:06:29;;;;;;;3.30;2.90;;;;;;;6.28;100.00;97930.34;109662;1251;72181;-70
2023/11/11 04:08:56;;;;;;;2.80;2.40;;;;;;;6.27;100.00;97922.92;109658;1251;61816;-71
2023/11/11 04:11:23;;;;;;;4.40;3.00;;;;;;;6.29;100.00;97915.80;109668;1251;58885;-68
2023/11/11 04:13:50;;;;;;;3.30;3.00;;;;;;;6.33;100.00;97911.14;109649;1250;74454;-68
2023/11/11 04:16:16;;;;;;;3.70;3.20;;;;;;;6.37;100.00;97909.26;109670;1251;67794;-70
2023/11/11 04:18:43;;;;;;;4.20;3.60;;;;;;;6.41;100.00;97910.27;109660;1251;71540;-71
2023/11/11 04:21:11;;;;;;;5.20;3.90;;;;;;;6.46;100.00;97905.27;109556;1251;62045;-71
2023/11/11 04:23:40;;;;;;;6.70;3.90;;;;;;;6.52;100.00;97903.51;109543;1251;60137;-69
2023/11/11 04:26:06;;;;;;;6.20;3.30;;;;;;;6.58;100.00;97899.36;109678;1251;74585;-70
2023/11/11 04:28:33;;;;;;;3.10;2.80;;;;;;;6.65;100.00;97899.66;109683;1251;67674;-71
2023/11/11 04:31:00;;;;;;;3.20;2.50;;;;;;;6.70;100.00;97901.48;109534;1251;71825;-71
2023/11/11 04:33:28;;;;;;;2.90;1.90;;;;;;;6.76;100.00;97897.77;109595;1251;59132;-71
2023/11/11 04:35:54;;;;;;;3.60;2.30;;;;;;;6.81;100.00;97896.52;109643;1251;59018;-71
2023/11/11 04:38:22;;;;;;;2.30;2.10;;;;;;;6.84;100.00;97892.02;109639;1251;74734;-70
2023/11/11 04:40:53;;;;;;;2.30;2.10;;;;;;;6.88;100.00;97893.04;109638;1251;67713;-71
2023/11/11 04:43:19;;;;;;;2.30;1.60;;;;;;;6.90;100.00;97894.88;109680;1251;72631;-71
2023/11/11 04:45:46;;;;;;;3.10;1.90;;;;;;;6.90;100.00;97890.58;109636;1251;59540;-70
2023/11/11 04:48:12;;;;;;;2.70;2.20;;;;;;;6.90;100.00;97886.27;109598;1251;58890;-70
2023/11/11 04:50:39;;;;;;;2.90;1.80;;;;;;;6.88;100.00;97886.12;109678;1251;74350;-69
2023/11/11 04:53:07;;;;;;;2.00;1.80;;;;;;;6.86;100.00;97885.53;109684;1251;66398;-68
2023/11/11 04:55:33;;;;;;;2.70;2.20;;;;;;;6.86;100.00;97884.17;109615;1251;73096;-70
2023/11/11 04:58:00;;;;;;;2.10;1.90;;;;;;;6.87;100.00;97884.48;109561;1251;60849;-69
2023/11/11 05:00:29;;;;;;;2.50;1.80;;;;;;;6.87;100.00;97884.97;109595;1251;59233;-71
2023/11/11 05:02:55;;;;;;;3.20;1.70;;;;;;;6.88;100.00;97884.47;109662;1251;73758;-72
2023/11/11 05:05:22;;;;;;;3.10;1.90;;;;;;;6.91;100.00;97887.66;109701;1251;67867;-70
2023/11/11 05:07:48;;;;;;;2.10;1.90;;;;;;;6.94;100.00;97882.37;109659;1251;58966;-70
2023/11/11 05:10:17;;;;;;;2.20;1.90;;;;;;;6.97;100.00;97881.83;109586;1251;61923;-71
2023/11/11 05:12:47;;;;;;;2.70;1.70;;;;;;;6.99;100.00;97882.87;109621;1251;59008;-68
2023/11/11 05:15:17;;;;;;;3.60;1.90;;;;;;;6.99;100.00;97880.72;109712;1251;73586;-70
2023/11/11 05:17:44;;;;;;;3.90;1.70;;;;;;;6.99;100.00;97874.95;109590;1250;68319;-69
2023/11/11 05:20:11;;;;;;;2.50;1.60;;;;;;;6.99;100.00;97878.42;109610;1251;72286;-72
2023/11/11 05:22:37;;;;;;;2.60;1.50;;;;;;;7.00;100.00;97876.17;109579;1251;61795;-69
2023/11/11 05:25:05;;;;;;;1.90;1.60;;;;;;;7.02;100.00;97874.20;109654;1251;59401;-71
2023/11/11 05:27:31;;;;;;;2.00;1.80;;;;;;;7.06;100.00;97874.00;109669;1250;73268;-69
2023/11/11 05:29:58;;;;;;;2.30;1.70;;;;;;;7.09;100.00;97877.14;109619;1251;66460;-67
2023/11/11 05:32:27;;;;;;;3.30;2.60;;;;;;;7.14;100.00;97883.74;109643;1251;71574;-70
2023/11/11 05:34:57;;;;;;;2.70;1.60;;;;;;;7.19;100.00;97884.92;109538;1250;60495;-71
2023/11/11 05:37:24;;;;;;;2.60;1.40;;;;;;;7.23;100.00;97885.09;109670;1250;61687;-70
2023/11/11 05:39:51;;;;;;;3.60;1.60;;;;;;;7.26;100.00;97886.84;109618;1251;74398;-71
2023/11/11 05:42:17;;;;;;;1.90;1.50;;;;;;;7.28;100.00;97884.87;109532;1250;66409;-69
2023/11/11 05:44:44;;;;;;;2.40;1.50;;;;;;;7.27;100.00;97887.73;109664;1251;70477;-70
2023/11/11 05:47:11;;;;;;;3.90;1.90;;;;;;;7.26;100.00;97890.02;109659;1251;59084;-69
2023/11/11 05:49:40;;;;;;;3.50;2.10;;;;;;;7.25;100.00;97889.95;109698;1251;59122;-71
2023/11/11 05:52:07;;;;;;;2.80;2.00;;;;;;;7.25;100.00;97885.08;109702;1251;73377;-70
2023/11/11 05:54:34;;;;;;;3.50;2.30;;;;;;;7.24;100.00;97883.52;109609;1251;66872;-70
2023/11/11 05:57:00;;;;;;;3.20;2.90;;;;;;;7.25;100.00;97883.64;109653;1251;58989;-72
2023/11/11 05:59:27;;;;;;;3.10;1.80;;;;;;;7.25;100.00;97879.25;109530;1251;60601;-74
2023/11/11 06:01:54;;;;;;;2.90;1.80;;;;;;;7.25;100.00;97875.05;109657;1250;59011;-73
2023/11/11 06:04:21;;;;;;;2.70;1.80;;;;;;;7.24;100.00;97873.52;109583;1251;74448;-71
2023/11/11 06:06:49;;;;;;;2.30;1.50;;;;;;;7.23;100.00;97872.56;109571;1251;67999;-72
2023/11/11 06:09:18;;;;;;;4.40;2.20;;;;;;;7.23;100.00;97875.61;109659;1250;72430;-69
2023/11/11 06:11:46;;;;;;;3.70;2.00;;;;;;;7.22;100.00;97881.06;109553;1251;60842;-69
2023/11/11 06:14:13;;;;;;;3.10;1.90;;;;;;;7.21;100.00;97880.77;109634;1251;58999;-73
2023/11/11 06:16:40;;;;;;;2.40;1.50;;;;;;;7.20;100.00;97885.30;109582;1250;73203;-72
2023/11/11 06:19:07;;;;;;;2.90;2.00;;;;;;;7.21;100.00;97883.11;109634;1251;66370;-71
2023/11/11 06:21:33;;;;;;;3.70;2.60;;;;;;;7.21;100.00;97881.50;109583;1251;72356;-72
2023/11/11 06:24:00;;;;;;;5.80;3.80;;;;;;;7.20;100.00;97883.39;109494;1251;60464;-69
2023/11/11 06:26:28;;;;;;;4.50;3.10;;;;;;;7.20;100.00;97884.05;109668;1250;60557;-73
2023/11/11 06:28:55;;;;;;;3.00;2.30;;;;;;;7.22;100.00;97882.07;109496;1250;74592;-70
2023/11/11 06:31:23;;;;;;;3.30;2.90;;;;;;;7.23;100.00;97877.48;109664;1251;66505;-69
2023/11/11 06:33:50;;;;;;;4.70;3.10;;;;;;;7.25;100.00;97874.77;109634;1250;72699;-72
2023/11/11 06:36:17;;;;;;;4.80;3.40;;;;;;;7.27;100.00;97872.06;109631;1254;61834;-70
2023/11/11 06:38:44;;;;;;;3.60;2.80;;;;;;;7.30;100.00;97872.79;109641;1250;59239;-68
2023/11/11 06:41:10;;;;;;;3.40;1.80;;;;;;;7.32;100.00;97875.05;109686;1250;74669;-66
2023/11/11 06:43:38;;;;;;;2.10;1.60;;;;;;;7.34;100.00;97871.57;109571;1250;66498;-66
2023/11/11 06:46:06;;;;;;;2.40;1.90;;;;;;;7.39;100.00;97870.73;109605;1250;71219;-66
2023/11/11 06:48:34;;;;;;;3.00;2.40;;;;;;;7.45;100.00;97867.41;109638;1251;61975;-70
2023/11/11 06:51:00;;;;;;;2.70;1.90;;;;;;;7.50;100.00;97865.63;109612;1251;58845;-69
2023/11/11 06:53:27;;;;;;;2.90;1.80;;;;;;;7.53;100.00;97861.34;109630;1250;73146;-64
2023/11/11 06:55:53;;;;;;;2.40;2.00;;;;;;;7.56;100.00;97860.92;109611;1250;58965;-65
2023/11/11 06:58:20;;;;;;;4.60;2.00;;;;;;;7.61;100.00;97856.64;109609;1250;72553;-67
2023/11/11 07:00:47;;;;;;;2.30;1.80;;;;;;;7.64;100.00;97856.06;109497;1251;61124;-67
2023/11/11 07:03:14;;;;;;;2.40;1.90;;;;;;;7.66;100.00;97855.25;109542;1251;58975;-70
2023/11/11 07:05:41;;;;;;;3.60;2.20;;;;;;;7.70;100.00;97848.58;109646;1250;74484;-65
2023/11/11 07:08:08;;;;;;;2.30;1.70;;;;;;;7.74;100.00;97851.42;109661;1250;67629;-66
2023/11/11 07:10:37;;;;;;;3.00;1.60;;;;;;;7.77;100.00;97846.80;109611;1250;71209;-65
2023/11/11 07:13:03;;;;;;;2.50;1.50;;;;;;;7.81;100.00;97847.16;109638;1250;60707;-70
2023/11/11 07:15:30;;;;;;;4.40;1.50;;;;;;;7.85;100.00;97844.21;109638;1251;59015;-71
2023/11/11 07:17:56;;;;;;;2.80;1.50;;;;;;;7.90;100.00;97838.80;109626;1250;73644;-65
2023/11/11 07:20:23;;;;;;;2.50;1.50;;;;;;;7.95;100.00;97841.98;109591;1250;68481;-69
2023/11/11 07:22:49;;;;;;;2.00;1.80;;;;;;;8.00;100.00;97837.73;109682;1250;71673;-70
2023/11/11 07:25:17;;;;;;;2.50;1.40;;;;;;;8.05;100.00;97830.83;109594;1250;60413;-70
2023/11/11 07:27:44;;;;;;;3.50;1.80;;;;;;;8.12;100.00;97830.34;109648;1250;61247;-66
2023/11/11 07:30:12;;;;;;;2.50;1.70;;;;;;;8.18;100.00;97824.76;109645;1251;74599;-63
2023/11/11 07:32:44;;;;;;;2.70;1.60;;;;;;;8.25;100.00;97822.66;109677;1250;66627;-72
2023/11/11 07:35:26;;;;;;;3.90;1.80;;;;;;;8.33;100.00;97824.23;109636;1250;70246;-67
2023/11/11 07:37:52;;;;;;;2.90;2.10;;;;;;;8.39;100.00;97820.70;109602;1250;60462;-69
2023/11/11 07:40:19;;;;;;;2.30;2.00;;;;;;;8.44;100.00;97820.61;109659;1250;59233;-70
2023/11/11 07:42:45;;;;;;;3.30;2.00;;;;;;;8.48;100.00;97818.77;109654;1251;59024;-68
2023/11/11 07:45:12;;;;;;;4.90;1.90;;;;;;;8.53;100.00;97816.41;109631;1250;67595;-72
2023/11/11 07:47:41;;;;;;;3.20;1.70;;;;;;;8.58;100.00;97812.41;109645;1249;71030;-69
2023/11/11 07:50:09;;;;;;;4.40;2.00;;;;;;;8.62;100.00;97814.78;109619;1250;62006;-68
2023/11/11 07:52:36;;;;;;;2.80;1.90;;;;;;;8.65;100.00;97808.64;109659;1250;58877;-67
2023/11/11 07:55:02;;;;;;;2.10;1.70;;;;;;;8.68;100.00;97806.08;109648;1250;74441;-67
2023/11/11 07:57:33;;;;;;;2.30;1.80;;;;;;;8.72;100.00;97804.95;109679;1250;66525;-67
2023/11/11 08:00:06;;;;;;;2.60;1.60;;;;;;;8.76;100.00;97803.89;109607;1250;72519;-73
2023/11/11 08:02:36;;;;;;;3.60;2.00;;;;;;;8.79;100.00;97803.02;109606;1250;62068;-72
2023/11/11 08:05:02;;;;;;;4.00;2.20;;;;;;;8.80;100.00;97805.96;109693;1250;59156;-72
2023/11/11 08:07:32;;;;;;;2.90;2.20;;;;;;;8.83;100.00;97804.38;109661;1250;73172;-71
2023/11/11 08:09:59;;;;;;;4.20;2.10;;;;;;;8.85;100.00;97801.93;109655;1250;66858;-73
2023/11/11 08:12:25;;;;;;;3.60;2.60;;;;;;;8.86;100.00;97798.71;109623;1250;72755;-73
2023/11/11 08:14:52;;;;;;;2.30;1.80;;;;;;;8.87;100.00;97798.68;109614;1250;60481;-70
2023/11/11 08:17:19;;;;;;;3.10;1.60;;;;;;;8.90;100.00;97796.36;109592;1250;59178;-72
2023/11/11 08:19:47;;;;;;;4.20;1.70;;;;;;;8.93;100.00;97796.16;109587;1250;74323;-71
2023/11/11 08:22:13;;;;;;;1.90;1.50;;;;;;;8.95;100.00;97798.56;109465;1251;66922;-70
2023/11/11 08:24:39;;;;;;;3.00;1.80;;;;;;;8.95;100.00;97795.48;109655;1250;59071;-70
2023/11/11 08:27:06;;;;;;;2.00;1.70;;;;;;;8.98;100.00;97791.90;109530;1251;62108;-69
2023/11/11 08:29:33;;;;;;;2.10;1.50;;;;;;;9.00;100.00;97792.55;109532;1251;58927;-72
2023/11/11 08:32:00;;;;;;;2.00;1.80;;;;;;;9.00;100.00;97787.52;109641;1250;74909;-72
2023/11/11 08:34:30;;;;;;;2.80;1.70;;;;;;;9.00;100.00;97786.55;109640;1250;67560;-76
2023/11/11 08:36:57;;;;;;;3.10;1.90;;;;;;;9.00;100.00;97786.84;109643;1250;71115;-71
2023/11/11 08:39:26;;;;;;;2.00;1.60;;;;;;;9.02;100.00;97782.96;109494;1250;61972;-74
2023/11/11 08:41:54;;;;;;;3.80;1.60;;;;;;;9.04;100.00;97779.25;109717;1250;60169;-72
2023/11/11 08:44:21;;;;;;;2.20;1.90;;;;;;;9.07;100.00;97773.87;109597;1250;73309;-72
2023/11/11 08:46:49;;;;;;;4.10;2.10;;;;;;;9.12;100.00;97769.95;109670;1250;66261;-70
2023/11/11 08:49:15;;;;;;;4.60;2.30;;;;;;;9.15;100.00;97767.00;109606;1251;71568;-69
2023/11/11 08:51:42;;;;;;;2.50;2.00;;;;;;;9.20;100.00;97766.39;109696;1250;59910;-68
2023/11/11 08:54:09;;;;;;;4.60;2.30;;;;;;;9.24;100.00;97765.94;109624;1250;58990;-69
2023/11/11 08:56:35;;;;;;;4.00;1.90;;;;;;;9.28;100.00;97763.77;109634;1250;74463;-72
2023/11/11 08:59:03;;;;;;;4.00;2.20;;;;;;;9.34;100.00;97767.61;109517;1251;65579;-70
2023/11/11 09:01:32;;;;;;;3.50;2.30;;;;;;;9.38;100.00;97762.02;109617;1250;71399;-68
2023/11/11 09:03:59;;;;;;;7.00;2.10;;;;;;;9.40;100.00;97761.05;109656;1250;58967;-72
2023/11/11 09:06:27;;;;;;;4.00;2.50;;;;;;;9.41;100.00;97756.26;109585;1250;60249;-69
2023/11/11 09:08:54;;;;;;;6.40;2.90;;;;;;;9.42;100.00;97748.34;109737;1250;73712;-75
2023/11/11 09:11:21;;;;;;;3.90;2.40;;;;;;;9.44;100.00;97748.06;109615;1250;66418;-70
2023/11/11 09:13:47;;;;;;;4.60;3.20;;;;;;;9.47;100.00;97739.97;109644;1250;72757;-70
2023/11/11 09:16:15;;;;;;;3.80;2.60;;;;;;;9.50;100.00;97730.45;109578;1250;61803;-71
2023/11/11 09:18:42;;;;;;;3.90;2.70;;;;;;;9.56;100.00;97727.32;109600;1250;59138;-70
2023/11/11 09:21:09;;;;;;;3.00;2.70;;;;;;;9.62;100.00;97723.76;109611;1251;58861;-68
2023/11/11 09:23:36;;;;;;;3.20;2.50;;;;;;;9.66;100.00;97722.68;109676;1250;66567;-73
2023/11/11 09:26:05;;;;;;;6.00;3.50;;;;;;;9.66;100.00;97718.55;109583;1250;72599;-71
2023/11/11 09:28:34;;;;;;;4.90;3.10;;;;;;;9.67;100.00;97718.05;109553;1251;59157;-68
2023/11/11 09:31:01;;;;;;;5.90;4.20;;;;;;;9.66;100.00;97715.36;109554;1251;60034;-69
2023/11/11 09:33:28;;;;;;;12.60;10.60;;;;;;;9.69;100.00;97712.34;109620;1251;74712;-68
2023/11/11 09:35:55;;;;;;;9.20;3.90;;;;;;;9.75;100.00;97708.66;109666;1250;66810;-68
2023/11/11 09:38:21;;;;;;;3.00;1.80;;;;;;;9.83;100.00;97706.80;109632;1250;72459;-68
2023/11/11 09:40:48;;;;;;;4.00;1.90;;;;;;;9.85;100.00;97699.59;109637;1249;60535;-70
2023/11/11 09:43:14;;;;;;;2.70;2.00;;;;;;;9.89;100.00;97695.02;109537;1251;59066;-72
2023/11/11 09:45:41;;;;;;;2.30;1.90;;;;;;;9.92;100.00;97689.48;109604;1250;74486;-73
2023/11/11 09:48:08;;;;;;;4.30;1.60;;;;;;;9.92;100.00;97684.80;109639;1250;66695;-72
2023/11/11 09:50:36;;;;;;;3.00;2.20;;;;;;;9.95;100.00;97668.83;109601;1251;71829;-71
2023/11/11 09:53:03;;;;;;;4.20;2.30;;;;;;;10.00;100.00;97666.65;109394;1251;170688;-71
2023/11/11 09:55:29;;;;;;;3.50;1.90;;;;;;;10.03;100.00;97660.56;109571;1250;60299;-73
2023/11/11 09:57:56;;;;;;;4.50;1.80;;;;;;;10.06;100.00;97655.36;109613;1250;75203;-74
2023/11/11 10:00:48;;;;;;;5.60;1.90;;;;;;;10.09;100.00;97653.55;109523;1251;67723;-71
2023/11/11 10:03:15;;;;;;;3.60;1.90;;;;;;;10.09;100.00;97649.90;109515;1250;70657;-74
2023/11/11 10:05:45;;;;;;;3.60;2.00;;;;;;;10.06;100.00;97646.33;109669;1250;60505;-75
2023/11/11 10:08:12;;;;;;;5.50;2.20;;;;;;;10.02;100.00;97642.79;109613;1250;59173;-72
2023/11/11 10:10:39;;;;;;;5.70;2.20;;;;;;;9.99;100.00;97641.49;109635;1250;59570;-71
2023/11/11 10:13:06;;;;;;;3.90;2.10;;;;;;;9.96;100.00;97638.73;109481;1253;68297;-70
2023/11/11 10:15:33;;;;;;;4.20;2.20;;;;;;;9.93;100.00;97636.73;109657;1250;72813;-72
2023/11/11 10:18:04;;;;;;;8.40;2.20;;;;;;;9.93;100.00;97639.80;109459;1251;62133;-73
2023/11/11 10:20:31;;;;;;;5.10;2.00;;;;;;;9.94;100.00;97636.19;109606;1250;59040;-71
2023/11/11 10:23:00;;;;;;;2.10;1.90;;;;;;;9.94;100.00;97631.21;109648;1250;74667;-72
2023/11/11 10:25:26;;;;;;;4.90;2.50;;;;;;;9.94;100.00;97628.47;109655;1250;66784;-70
2023/11/11 10:27:54;;;;;;;4.50;2.70;;;;;;;9.93;100.00;97627.64;109612;1251;72411;-71
2023/11/11 10:30:24;;;;;;;3.00;2.00;;;;;;;9.94;100.00;97625.92;109645;1250;61697;-71
2023/11/11 10:32:54;;;;;;;3.10;2.30;;;;;;;9.96;100.00;97618.98;109692;1250;60027;-69
2023/11/11 10:35:22;;;;;;;7.30;2.50;;;;;;;9.99;100.00;97616.27;109642;1250;73103;-72
2023/11/11 10:37:50;;;;;;;4.10;1.90;;;;;;;10.01;100.00;97615.70;109605;1250;67689;-70
2023/11/11 10:40:17;;;;;;;3.60;2.30;;;;;;;10.02;100.00;97612.17;109609;1250;72587;-71
2023/11/11 10:42:45;;;;;;;3.40;2.40;;;;;;;10.04;100.00;97610.85;109612;1250;61692;-70
2023/11/11 10:45:13;;;;;;;3.50;2.70;;;;;;;10.06;100.00;97610.36;109510;1251;59002;-71
2023/11/11 10:47:39;;;;;;;4.50;2.20;;;;;;;10.09;100.00;97608.02;109648;1250;74381;-70
2023/11/11 10:50:07;;;;;;;3.80;2.30;;;;;;;10.12;100.00;97607.23;109647;1250;67704;-71
2023/11/11 10:52:35;;;;;;;4.30;2.40;;;;;;;10.13;100.00;97602.83;109619;1250;73062;-71
2023/11/11 10:55:02;;;;;;;2.80;2.10;;;;;;;10.15;100.00;97598.48;109582;1251;61928;-71
2023/11/11 10:57:29;;;;;;;3.40;2.30;;;;;;;10.19;100.00;97597.44;109431;1251;60240;-71
2023/11/11 10:59:56;;;;;;;5.60;2.90;;;;;;;10.22;100.00;97598.58;109515;1250;73223;-72
2023/11/11 11:02:23;;;;;;;6.90;3.50;;;;;;;10.22;100.00;97596.77;109635;1251;66571;-72
2023/11/11 11:04:53;;;;;;;5.40;3.60;;;;;;;10.21;100.00;97593.34;109457;1251;71266;-72
2023/11/11 11:07:23;;;;;;;7.80;3.50;;;;;;;10.18;100.00;97592.86;109469;1251;60608;-71
2023/11/11 11:09:56;;;;;;;4.30;3.40;;;;;;;10.16;100.00;97588.47;109433;1251;59281;-69
2023/11/11 11:12:43;;;;;;;3.50;2.90;;;;;;;10.15;100.00;97589.66;109577;1251;74614;-72
2023/11/11 11:15:13;;;;;;;4.30;3.80;;;;;;;10.16;100.00;97588.58;109654;1251;66451;-73
2023/11/11 11:17:44;;;;;;;4.50;2.90;;;;;;;10.16;100.00;97586.18;109556;1251;71559;-72
2023/11/11 11:20:20;;;;;;;4.20;3.00;;;;;;;10.16;100.00;97583.63;109587;1251;60758;-72
2023/11/11 11:22:47;;;;;;;4.60;3.30;;;;;;;10.17;100.00;97582.41;109589;1250;60081;-73
2023/11/11 11:25:48;;;;;;;3.90;3.00;;;;;;;10.19;100.00;97581.61;109653;1250;74436;-74